CheckWX is a tool to help pilots better visualize weather data.  It is not intended as a substitute for an official pre-flight weather briefing.

12:25:16 UTC

KAPS METAR
Port of South Louisiana Executive Regional Airport
Reserve, Louisiana, USA
Current

10 mins ago

KAPS 181215Z AUTO 05012G18KT 10SM OVC028 13/06 A3010 RMK AO2 T01250059
Observed
Feb-18 @ 12:15 UTC
Wind
  • 050° at 12 KTS
  • Gusting to 18 KTS
Visibility
10 SM
Flight Rules
MVFR
Cloud Levels
  • Overcast at 2,800' AGL
Temperature
13°C / 55°F
Dewpoint
C / 43°F
Humidity
63%
Altimeter
30.1" Hg
Pressure
1019.32 hPa
Previous

30 mins ago

KAPS 181155Z AUTO 05012G22KT 10SM OVC028 13/06 A3008 RMK AO2 T01250059 10161 20125
Observed
Feb-18 @ 11:55 UTC
Wind
  • 050° at 12 KTS
  • Gusting to 22 KTS
Visibility
10 SM
Flight Rules
MVFR
Cloud Levels
  • Overcast at 2,800' AGL
Temperature
13°C / 55°F
Dewpoint
C / 43°F
Humidity
63%
Altimeter
30.08" Hg
Pressure
1018.62 hPa
Previous

50 mins ago

KAPS 181135Z AUTO 05013G25KT 10SM OVC028 13/06 A3008 RMK AO2 T01270060
Observed
Feb-18 @ 11:35 UTC
Wind
  • 050° at 13 KTS
  • Gusting to 25 KTS
Visibility
10 SM
Flight Rules
MVFR
Cloud Levels
  • Overcast at 2,800' AGL
Temperature
13°C / 55°F
Dewpoint
C / 43°F
Humidity
63%
Altimeter
30.08" Hg
Pressure
1018.62 hPa